.
WxDataArchive / Data Records for 2013-06-02
2013-06-01 June 2013 2013-06-03

Data Records for Sunday, 02 June 2013

Time	Temp	Chill	HIndex	Humid	Dewpt	 Wind 	HiWind	WindDir	Rain 	Barom 
-----	----	-----	------	-----	-----	------	------	-------	-----	----- 
00:00	69.8	69.8	69.8	76	61.9	1	5	270	0.00	29.708 
00:05	69.6	69.6	69.6	77	62.1	0	3	270	0.00	29.708 
00:10	69.4	69.4	69.4	77	61.9	0	4	248	0.00	29.708 
00:15	69.3	69.3	69.3	78	62.1	1	4	248	0.00	29.706 
00:20	69.3	69.3	69.3	78	62.1	1	4	248	0.00	29.706 
00:25	69.1	69.1	69.1	78	61.9	0	3	248	0.00	29.706 
00:30	68.9	68.9	68.9	79	62.1	0	2	248	0.00	29.704 
00:35	68.8	68.8	68.8	79	62.0	1	3	248	0.00	29.704 
00:40	68.6	68.6	68.6	80	62.2	1	4	248	0.00	29.704 
00:45	68.4	68.4	68.4	80	62.0	1	3	248	0.00	29.702 
00:50	68.4	68.4	68.4	80	62.0	1	4	270	0.00	29.702 
00:55	68.3	68.3	68.3	81	62.2	1	4	270	0.00	29.702 
01:00	68.3	68.3	68.3	81	62.2	1	3	315	0.00	29.704 
01:05	68.1	68.1	68.1	81	62.0	1	3	270	0.00	29.704 
01:10	67.9	67.9	67.9	81	61.8	1	2	270	0.00	29.704 
01:15	67.9	67.9	67.9	82	62.2	1	6	270	0.00	29.704 
01:20	68.1	68.1	68.1	81	62.0	1	4	248	0.00	29.704 
01:25	68.3	68.3	68.3	81	62.2	1	3	292	0.00	29.704 
01:30	68.3	68.3	68.3	81	62.2	1	4	270	0.00	29.708 
01:35	68.3	68.3	68.3	81	62.2	1	5	315	0.00	29.708 
01:40	68.3	68.3	68.3	81	62.2	1	5	315	0.00	29.708 
01:45	68.1	68.1	68.1	81	62.0	0	2	292	0.00	29.705 
01:50	68.1	68.1	68.1	81	62.0	1	3	248	0.00	29.705 
01:55	68.1	68.1	68.1	82	62.4	1	2	248	0.00	29.705 
02:00	67.9	67.9	67.9	82	62.2	1	4	248	0.00	29.701 
02:05	67.9	67.9	67.9	82	62.2	1	3	248	0.00	29.701 
02:10	67.9	67.9	67.9	82	62.2	0	4	270	0.00	29.701 
02:15	67.8	67.8	67.8	83	62.4	0	1	270	0.00	29.698 
02:20	67.6	67.6	67.6	83	62.2	0	2	270	0.00	29.698 
02:25	67.3	67.3	67.3	83	62.0	1	3	270	0.00	29.698 
02:30	66.9	66.9	66.9	82	61.2	1	5	270	0.00	29.703 
02:35	66.8	66.8	66.8	81	60.8	1	4	270	0.00	29.703 
02:40	66.6	66.6	66.6	79	59.9	2	9	270	0.00	29.703 
02:45	66.4	66.4	66.4	78	59.3	1	5	292	0.00	29.706 
02:50	66.1	66.1	66.1	77	58.7	1	4	292	0.00	29.706 
02:55	66.0	66.0	66.0	77	58.6	2	6	270	0.00	29.706 
03:00	65.8	65.8	65.8	77	58.4	1	3	270	0.00	29.714 
03:05	65.8	65.8	65.8	77	58.4	1	4	270	0.00	29.714 
03:10	65.6	65.6	65.6	77	58.2	1	4	270	0.00	29.714 
03:15	65.5	65.5	65.5	78	58.5	1	3	270	0.00	29.716 
03:20	65.2	65.2	65.2	79	58.5	0	3	270	0.00	29.716 
03:25	65.0	65.0	65.0	80	58.7	1	5	270	0.00	29.716 
03:30	64.7	64.7	64.7	80	58.4	1	4	270	0.00	29.718 
03:35	64.5	64.5	64.5	81	58.5	1	5	270	0.00	29.718 
03:40	64.3	64.3	64.3	81	58.3	1	2	270	0.00	29.718 
03:45	64.2	64.2	64.2	82	58.6	1	5	292	0.00	29.722 
03:50	64.0	64.0	64.0	82	58.4	1	6	270	0.00	29.722 
03:55	64.0	64.0	64.0	83	58.7	2	6	270	0.00	29.722 
04:00	63.9	63.9	63.9	83	58.6	1	5	270	0.00	29.724 
04:05	63.7	63.7	63.7	83	58.4	1	5	270	0.00	29.724 
04:10	63.7	63.7	63.7	84	58.8	2	5	270	0.00	29.724 
04:15	63.5	63.5	63.5	84	58.6	2	5	270	0.00	29.727 
04:20	63.5	63.5	63.5	84	58.6	1	3	270	0.00	29.727 
04:25	63.5	63.5	63.5	84	58.6	1	5	270	0.00	29.727 
04:30	63.4	63.4	63.4	84	58.5	1	4	270	0.00	29.728 
04:35	63.4	63.4	63.4	84	58.5	2	5	270	0.00	29.728 
04:40	63.2	63.2	63.2	85	58.6	1	3	270	0.00	29.728 
04:45	63.2	63.2	63.2	85	58.6	1	5	270	0.00	29.734 
04:50	63.1	63.1	63.1	85	58.5	1	4	270	0.00	29.734 
04:55	63.1	63.1	63.1	85	58.5	1	2	270	0.00	29.734 
05:00	62.9	62.9	62.9	85	58.3	1	5	270	0.00	29.735 
05:05	62.9	62.9	62.9	86	58.6	1	4	270	0.00	29.735 
05:10	62.7	62.7	62.7	86	58.4	1	5	270	0.00	29.735 
05:15	62.6	62.6	62.6	86	58.3	1	2	270	0.00	29.737 
05:20	62.6	62.6	62.6	86	58.3	1	4	270	0.00	29.737 
05:25	62.6	62.6	62.6	87	58.7	2	6	292	0.00	29.737 
05:30	62.6	62.6	62.6	87	58.7	1	4	292	0.00	29.740 
05:35	62.6	62.6	62.6	87	58.7	1	4	292	0.00	29.740 
05:40	62.4	62.4	62.4	87	58.5	1	4	292	0.00	29.740 
05:45	62.4	62.4	62.4	87	58.5	1	3	292	0.00	29.751 
05:50	62.4	62.4	62.4	87	58.5	0	2	292	0.00	29.751 
05:55	62.4	62.4	62.4	87	58.5	1	4	292	0.00	29.751 
06:00	62.6	62.6	62.6	87	58.7	2	5	292	0.00	29.753 
06:05	62.6	62.6	62.6	86	58.3	1	4	248	0.00	29.753 
06:10	62.6	62.6	62.6	86	58.3	0	3	248	0.00	29.753 
06:15	62.6	62.6	62.6	86	58.3	1	3	248	0.00	29.756 
06:20	62.6	62.6	62.6	86	58.3	1	3	248	0.00	29.756 
06:25	62.6	62.6	62.6	86	58.3	0	2	248	0.00	29.756 
06:30	62.6	62.6	62.6	86	58.3	1	3	248	0.00	29.766 
06:35	62.6	62.6	62.6	86	58.3	1	4	248	0.00	29.766 
06:40	62.6	62.6	62.6	86	58.3	1	4	248	0.00	29.766 
06:45	62.6	62.6	62.6	86	58.3	0	2	248	0.00	29.770 
06:50	62.6	62.6	62.6	86	58.3	1	4	248	0.00	29.770 
06:55	62.6	62.6	62.6	86	58.3	2	4	270	0.00	29.770 
07:00	62.6	62.6	62.6	86	58.3	2	5	270	0.00	29.775 
07:05	62.6	62.6	62.6	86	58.3	2	4	270	0.00	29.775 
07:10	62.6	62.6	62.6	86	58.3	1	4	270	0.00	29.775 
07:15	62.6	62.6	62.6	86	58.3	2	5	270	0.00	29.778 
07:20	62.6	62.6	62.6	86	58.3	1	5	292	0.00	29.778 
07:25	62.6	62.6	62.6	86	58.3	1	4	292	0.00	29.778 
07:30	62.6	62.6	62.6	86	58.3	1	3	292	0.00	29.774 
07:35	62.6	62.6	62.6	85	58.0	1	4	292	0.00	29.774 
07:40	62.7	62.7	62.7	85	58.1	2	5	292	0.00	29.774 
07:45	62.9	62.9	62.9	85	58.3	1	3	292	0.00	29.781 
07:50	63.1	63.1	63.1	85	58.5	1	3	292	0.00	29.781 
07:55	63.1	63.1	63.1	85	58.5	0	2	292	0.00	29.781 
08:00	63.2	63.2	63.2	85	58.6	1	3	292	0.00	29.786 
08:05	63.2	63.2	63.2	85	58.6	1	3	292	0.00	29.786 
08:10	63.2	63.2	63.2	84	58.3	1	3	270	0.00	29.786 
08:15	63.2	63.2	63.2	84	58.3	1	4	270	0.00	29.792 
08:20	63.2	63.2	63.2	84	58.3	1	5	270	0.00	29.792 
08:25	63.2	63.2	63.2	84	58.3	0	1	270	0.00	29.792 
08:30	63.2	63.2	63.2	84	58.3	1	3	270	0.00	29.794 
08:35	63.2	63.2	63.2	84	58.3	1	3	270	0.00	29.794 
08:40	63.4	63.4	63.4	84	58.5	0	2	270	0.00	29.794 
08:45	63.4	63.4	63.4	84	58.5	1	3	270	0.00	29.800 
08:50	63.4	63.4	63.4	84	58.5	1	4	270	0.00	29.800 
08:55	63.4	63.4	63.4	84	58.5	1	3	270	0.00	29.800 
09:00	63.5	63.5	63.5	84	58.6	1	4	270	0.00	29.803 
09:05	63.9	63.9	63.9	84	59.0	1	3	270	0.00	29.803 
09:10	64.2	64.2	64.2	83	58.9	2	4	270	0.00	29.803 
09:15	64.5	64.5	64.5	82	58.9	2	4	270	0.00	29.804 
09:20	64.5	64.5	64.5	82	58.9	1	4	270	0.00	29.804 
09:25	64.7	64.7	64.7	81	58.7	1	2	270	0.00	29.804 
09:30	64.7	64.7	64.7	81	58.7	1	3	270	0.00	29.804 
09:35	64.7	64.7	64.7	80	58.4	2	5	270	0.00	29.804 
09:40	64.7	64.7	64.7	80	58.4	2	5	270	0.00	29.804 
09:45	64.8	64.8	64.8	80	58.5	1	3	270	0.00	29.806 
09:50	64.8	64.8	64.8	80	58.5	0	2	270	0.00	29.806 
09:55	64.8	64.8	64.8	80	58.5	0	3	270	0.00	29.806 
10:00	64.7	64.7	64.7	80	58.4	1	4	270	0.00	29.808 
10:05	64.5	64.5	64.5	80	58.2	0	2	270	0.00	29.808 
10:10	64.5	64.5	64.5	80	58.2	1	4	270	0.00	29.808 
10:15	64.5	64.5	64.5	80	58.2	1	4	270	0.00	29.812 
10:20	64.5	64.5	64.5	80	58.2	1	3	270	0.00	29.812 
10:25	64.5	64.5	64.5	80	58.2	0	1	270	0.00	29.812 
10:30	64.5	64.5	64.5	81	58.5	1	3	270	0.00	29.812 
10:35	64.5	64.5	64.5	80	58.2	0	2	270	0.00	29.812 
10:40	64.7	64.7	64.7	80	58.4	0	3	270	0.00	29.812 
10:45	64.7	64.7	64.7	80	58.4	0	3	270	0.00	29.817 
10:50	64.5	64.5	64.5	80	58.2	0	2	270	0.00	29.817 
10:55	64.5	64.5	64.5	80	58.2	0	3	270	0.00	29.817 
11:00	64.3	64.3	64.3	80	58.0	1	2	270	0.00	29.825 
11:05	64.2	64.2	64.2	81	58.2	1	3	270	0.00	29.825 
11:10	64.0	64.0	64.0	81	58.0	1	5	270	0.00	29.825 
11:15	63.9	63.9	63.9	82	58.3	1	4	270	0.00	29.832 
11:20	63.9	63.9	63.9	82	58.3	0	2	270	0.00	29.832 
11:25	63.9	63.9	63.9	83	58.6	0	2	270	0.00	29.832 
11:30	63.9	63.9	63.9	83	58.6	0	2	270	0.00	29.835 
11:35	63.9	63.9	63.9	84	59.0	0	3	270	0.00	29.835 
11:40	64.2	64.2	64.2	84	59.3	0	2	270	0.00	29.835 
11:45	64.7	64.7	64.7	83	59.4	0	3	270	0.00	29.835 
11:50	65.0	65.0	65.0	82	59.4	1	3	270	0.00	29.835 
11:55	65.2	65.2	65.2	81	59.2	1	4	270	0.00	29.835 
12:00	65.6	65.6	65.6	80	59.3	1	3	270	0.00	29.837 
12:05	66.1	66.1	66.1	79	59.4	0	2	270	0.00	29.837 
12:10	66.8	66.8	66.8	79	60.1	1	3	270	0.00	29.837 
12:15	67.3	67.3	67.3	77	59.8	1	3	270	0.00	29.842 
12:20	67.8	67.8	67.8	76	59.9	1	3	270	0.00	29.842 
12:25	67.9	67.9	67.9	75	59.7	1	4	270	0.00	29.842 
12:30	67.6	67.6	67.6	74	59.0	1	3	270	0.00	29.847 
12:35	67.3	67.3	67.3	75	59.1	1	4	270	0.00	29.847 
12:40	67.3	67.3	67.3	75	59.1	0	3	270	0.00	29.847 
12:45	67.1	67.1	67.1	75	58.9	1	3	270	0.00	29.854 
12:50	66.8	66.8	66.8	75	58.6	1	2	270	0.00	29.854 
12:55	66.6	66.6	66.6	76	58.8	0	2	270	0.00	29.854 
13:00	66.3	66.3	66.3	77	58.9	0	2	270	0.00	29.855 
13:05	66.0	66.0	66.0	77	58.6	0	3	270	0.00	29.855 
13:10	65.6	65.6	65.6	78	58.5	0	2	270	0.00	29.855 
13:15	65.5	65.5	65.5	79	58.8	0	1	270	0.00	29.859 
13:20	65.3	65.3	65.3	81	59.3	0	0	---	0.00	29.859 
13:25	65.3	65.3	65.3	81	59.3	0	0	---	0.00	29.859 
13:30	65.2	65.2	65.2	83	59.9	0	1	270	0.00	29.862 
13:35	65.0	65.0	65.0	83	59.7	0	1	270	0.00	29.862 
13:40	65.2	65.2	65.2	84	60.2	0	2	270	0.00	29.862 
13:45	65.3	65.3	65.3	82	59.7	0	2	270	0.00	29.864 
13:50	65.6	65.6	65.6	81	59.6	1	2	270	0.00	29.864 
13:55	66.0	66.0	66.0	81	60.0	0	1	270	0.00	29.864 
14:00	66.3	66.3	66.3	81	60.3	0	1	270	0.00	29.864 
14:05	66.6	66.6	66.6	80	60.2	0	1	270	0.00	29.864 
14:10	66.8	66.8	66.8	79	60.1	1	3	270	0.00	29.864 
14:15	66.8	66.8	66.8	78	59.7	0	2	270	0.00	29.868 
14:20	66.8	66.8	66.8	78	59.7	0	2	270	0.00	29.868 
14:25	66.4	66.4	66.4	77	59.0	0	2	270	0.00	29.868 
14:30	66.3	66.3	66.3	78	59.2	0	2	270	0.00	29.867 
14:35	66.4	66.4	66.4	78	59.3	0	2	270	0.00	29.867 
14:40	66.8	66.8	66.8	78	59.7	0	1	270	0.00	29.867 
14:45	67.1	67.1	67.1	77	59.6	0	3	270	0.00	29.866 
14:50	67.3	67.3	67.3	73	58.3	2	4	270	0.00	29.866 
14:55	67.3	67.3	67.3	72	58.0	2	3	292	0.00	29.866 
15:00	67.3	67.3	67.3	73	58.3	2	3	292	0.00	29.868 
15:05	67.1	67.1	67.1	72	57.8	2	6	270	0.00	29.868 
15:10	67.3	67.3	67.3	72	58.0	3	5	292	0.00	29.868 
15:15	67.9	67.9	67.9	72	58.5	2	5	0	0.00	29.870 
15:20	68.1	68.1	68.1	72	58.7	2	5	315	0.00	29.870 
15:25	68.3	68.3	68.3	71	58.5	2	4	315	0.00	29.870 
15:30	68.3	68.3	68.3	71	58.5	2	4	315	0.00	29.874 
15:35	68.3	68.3	68.3	70	58.1	2	4	315	0.00	29.874 
15:40	67.8	67.8	67.8	69	57.2	3	5	292	0.00	29.874 
15:45	67.6	67.6	67.6	70	57.5	2	4	292	0.00	29.880 
15:50	67.6	67.6	67.6	70	57.5	2	4	292	0.00	29.880 
15:55	68.1	68.1	68.1	68	57.1	3	5	270	0.00	29.880 
16:00	68.6	68.6	68.6	68	57.6	2	5	270	0.00	29.879 
16:05	68.6	68.6	68.6	68	57.6	2	4	292	0.00	29.879 
16:10	68.4	68.4	68.4	69	57.8	2	4	292	0.00	29.879 
16:15	68.4	68.4	68.4	68	57.4	2	4	292	0.00	29.884 
16:20	67.8	67.8	67.8	67	56.4	3	5	315	0.00	29.884 
16:25	67.4	67.4	67.4	68	56.5	2	5	315	0.00	29.884 
16:30	67.1	67.1	67.1	67	55.8	3	5	292	0.00	29.885 
16:35	67.1	67.1	67.1	69	56.6	2	5	315	0.00	29.885 
16:40	66.9	66.9	66.9	68	56.0	2	4	315	0.00	29.885 
16:45	66.9	66.9	66.9	69	56.4	2	4	292	0.00	29.885 
16:50	66.9	66.9	66.9	67	55.6	3	5	315	0.00	29.885 
16:55	66.9	66.9	66.9	67	55.6	3	6	292	0.00	29.885 
17:00	66.9	66.9	66.9	67	55.6	2	4	292	0.00	29.887 
17:05	66.9	66.9	66.9	67	55.6	3	6	292	0.00	29.887 
17:10	66.6	66.6	66.6	67	55.3	2	5	292	0.00	29.887 
17:15	66.3	66.3	66.3	68	55.4	2	4	292	0.00	29.891 
17:20	66.4	66.4	66.4	68	55.5	3	4	315	0.00	29.891 
17:25	66.4	66.4	66.4	67	55.1	3	5	270	0.00	29.891 
17:30	66.3	66.3	66.3	67	55.0	2	4	0	0.00	29.888 
17:35	66.4	66.4	66.4	69	55.9	2	3	315	0.00	29.888 
17:40	66.3	66.3	66.3	66	54.6	3	5	315	0.00	29.888 
17:45	66.8	66.8	66.8	66	55.1	2	3	315	0.00	29.886 
17:50	66.3	66.3	66.3	65	54.2	3	5	292	0.00	29.886 
17:55	65.5	65.5	65.5	67	54.2	3	6	292	0.00	29.886 
18:00	65.3	65.3	65.3	67	54.1	3	6	292	0.00	29.888 
18:05	65.0	65.0	65.0	67	53.8	3	5	292	0.00	29.888 
18:10	65.2	65.2	65.2	66	53.5	3	6	292	0.00	29.888 
18:15	64.7	64.7	64.7	67	53.5	2	5	315	0.00	29.887 
18:20	64.8	64.8	64.8	67	53.6	3	6	315	0.00	29.887 
18:25	64.8	64.8	64.8	66	53.2	3	6	315	0.00	29.887 
18:30	64.3	64.3	64.3	67	53.1	3	5	338	0.00	29.887 
18:35	63.7	63.7	63.7	68	52.9	3	7	0	0.00	29.887 
18:40	63.4	63.4	63.4	69	53.0	2	6	315	0.00	29.887 
18:45	63.5	63.5	63.5	68	52.7	2	5	315	0.00	29.893 
18:50	63.4	63.4	63.4	67	52.2	3	5	338	0.00	29.893 
18:55	63.1	63.1	63.1	67	52.0	2	6	315	0.00	29.893 
19:00	62.7	62.7	62.7	68	52.0	2	4	338	0.00	29.903 
19:05	63.1	63.1	63.1	68	52.4	2	5	270	0.00	29.903 
19:10	63.1	63.1	63.1	66	51.6	3	6	338	0.00	29.903 
19:15	62.6	62.6	62.6	67	51.5	2	5	292	0.00	29.905 
19:20	62.6	62.6	62.6	67	51.5	2	4	338	0.00	29.905 
19:25	62.4	62.4	62.4	67	51.3	2	5	315	0.00	29.905 
19:30	62.4	62.4	62.4	66	50.9	2	5	315	0.00	29.916 
19:35	62.6	62.6	62.6	67	51.5	2	4	315	0.00	29.916 
19:40	62.4	62.4	62.4	66	50.9	2	4	315	0.00	29.916 
19:45	61.8	61.8	61.8	66	50.3	2	5	315	0.00	29.921 
19:50	61.2	61.2	61.2	67	50.2	2	4	292	0.00	29.921 
19:55	60.5	60.5	60.5	69	50.3	2	6	292	0.00	29.921 
20:00	60.1	60.1	60.1	69	49.9	2	6	315	0.00	29.923 
20:05	59.8	59.8	59.8	70	50.0	1	3	315	0.00	29.923 
20:10	59.6	59.6	59.6	70	49.8	1	4	292	0.00	29.923 
20:15	59.2	59.2	59.2	69	49.0	3	7	292	0.00	29.923 
20:20	58.9	58.9	58.9	69	48.7	3	5	292	0.00	29.923 
20:25	58.6	58.6	58.6	70	48.8	2	5	292	0.00	29.923 
20:30	58.3	58.3	58.3	70	48.6	2	5	270	0.00	29.931 
20:35	58.0	58.0	58.0	71	48.6	2	4	292	0.00	29.931 
20:40	57.6	57.6	57.6	70	47.9	2	6	292	0.00	29.931 
20:45	57.5	57.5	57.5	71	48.2	1	4	315	0.00	29.937 
20:50	57.3	57.3	57.3	71	48.0	1	3	315	0.00	29.937 
20:55	57.0	57.0	57.0	71	47.7	2	3	315	0.00	29.937 
21:00	57.0	57.0	57.0	71	47.7	1	3	315	0.00	29.937 
21:05	56.7	56.7	56.7	71	47.4	1	4	315	0.00	29.937 
21:10	56.6	56.6	56.6	70	46.9	2	5	338	0.00	29.937 
21:15	56.5	56.5	56.5	70	46.8	1	4	338	0.00	29.936 
21:20	56.3	56.3	56.3	71	47.0	1	4	338	0.00	29.936 
21:25	56.2	56.2	56.2	71	46.9	2	4	292	0.00	29.936 
21:30	55.9	55.9	55.9	70	46.3	2	5	292	0.00	29.944 
21:35	55.7	55.7	55.7	70	46.1	2	6	292	0.00	29.944 
21:40	55.4	55.4	55.4	71	46.2	2	5	292	0.00	29.944 
21:45	55.1	55.1	55.1	71	45.9	1	4	315	0.00	29.947 
21:50	54.8	54.8	54.8	71	45.6	1	3	270	0.00	29.947 
21:55	54.7	54.7	54.7	72	45.9	1	3	292	0.00	29.947 
22:00	54.4	54.4	54.4	72	45.6	1	3	292	0.00	29.951 
22:05	54.2	54.2	54.2	72	45.4	1	4	315	0.00	29.951 
22:10	54.1	54.1	54.1	73	45.6	0	2	292	0.00	29.951 
22:15	53.9	53.9	53.9	73	45.4	0	1	292	0.00	29.960 
22:20	53.8	53.8	53.8	74	45.7	0	2	292	0.00	29.960 
22:25	53.6	53.6	53.6	74	45.5	1	3	292	0.00	29.960 
22:30	53.5	53.5	53.5	74	45.4	1	3	292	0.00	29.971 
22:35	53.3	53.3	53.3	74	45.2	1	3	292	0.00	29.971 
22:40	53.2	53.2	53.2	74	45.1	0	2	292	0.00	29.971 
22:45	53.1	53.1	53.1	75	45.4	0	1	292	0.00	29.977 
22:50	52.9	52.9	52.9	75	45.2	0	1	292	0.00	29.977 
22:55	52.8	52.8	52.8	76	45.4	0	1	292	0.00	29.977 
23:00	52.6	52.6	52.6	76	45.3	0	1	292	0.00	29.987 
23:05	52.5	52.5	52.5	76	45.2	0	2	292	0.00	29.987 
23:10	52.3	52.3	52.3	77	45.3	0	1	292	0.00	29.987 
23:15	52.2	52.2	52.2	77	45.2	0	1	292	0.00	29.991 
23:20	51.9	51.9	51.9	77	44.9	0	1	292	0.00	29.991 
23:25	51.7	51.7	51.7	76	44.4	0	1	292	0.00	29.991 
23:30	51.7	51.7	51.7	76	44.4	0	3	292	0.00	29.992 
23:35	51.6	51.6	51.6	76	44.3	0	1	292	0.00	29.992 
23:40	51.4	51.4	51.4	76	44.1	0	1	292	0.00	29.992 
23:45	51.3	51.3	51.3	77	44.3	0	1	292	0.00	29.991 
23:50	51.0	51.0	51.0	77	44.0	0	1	292	0.00	29.991 
23:55	50.8	50.8	50.8	77	43.9	0	1	292	0.00	29.991 

CoCoRaHS
IN-AL-39
A2 Web Hosting
Creative Commons License
GoDaddy
search engine by freefind advanced

loaded 2018-11-17 12:39:55 • last modified 2010-11-18 10:43:29
Privacy PolicyDisclaimer
• wx.awcolley.com is powered by PmWiki v.2002016 •
• all content (unless otherwise noted) © 2018 A W Colley